sensor_id;sensor_type;location;lat;lon;timestamp;temperature;humidity
3954;DHT22;1991;48.682;9.030;2023-04-08T00:01:14;8.50;99.90
3954;DHT22;1991;48.682;9.030;2023-04-08T00:03:39;8.50;99.90
3954;DHT22;1991;48.682;9.030;2023-04-08T00:06:05;8.30;99.90
3954;DHT22;1991;48.682;9.030;2023-04-08T00:08:32;8.30;99.90
3954;DHT22;1991;48.682;9.030;2023-04-08T00:10:58;8.30;99.90
3954;DHT22;1991;48.682;9.030;2023-04-08T00:13:23;8.30;99.90
3954;DHT22;1991;48.682;9.030;2023-04-08T00:15:49;8.20;99.90
3954;DHT22;1991;48.682;9.030;2023-04-08T00:18:15;8.20;99.90
3954;DHT22;1991;48.682;9.030;2023-04-08T00:20:42;8.30;99.90
3954;DHT22;1991;48.682;9.030;2023-04-08T00:23:07;8.20;99.90
3954;DHT22;1991;48.682;9.030;2023-04-08T00:25:33;8.20;99.90
3954;DHT22;1991;48.682;9.030;2023-04-08T00:27:58;8.30;99.90
3954;DHT22;1991;48.682;9.030;2023-04-08T00:30:24;8.30;99.90
3954;DHT22;1991;48.682;9.030;2023-04-08T00:32:51;8.30;99.90
3954;DHT22;1991;48.682;9.030;2023-04-08T00:35:17;8.30;99.90
3954;DHT22;1991;48.682;9.030;2023-04-08T00:37:43;8.30;99.90
3954;DHT22;1991;48.682;9.030;2023-04-08T00:40:08;8.20;99.90
3954;DHT22;1991;48.682;9.030;2023-04-08T00:42:34;8.20;99.90
3954;DHT22;1991;48.682;9.030;2023-04-08T00:45:00;8.10;99.90
3954;DHT22;1991;48.682;9.030;2023-04-08T00:47:26;8.10;99.90
3954;DHT22;1991;48.682;9.030;2023-04-08T00:49:51;8.10;99.90
3954;DHT22;1991;48.682;9.030;2023-04-08T00:52:17;8.10;99.90
3954;DHT22;1991;48.682;9.030;2023-04-08T00:54:42;8.10;99.90
3954;DHT22;1991;48.682;9.030;2023-04-08T00:57:08;8.10;99.90
3954;DHT22;1991;48.682;9.030;2023-04-08T00:59:34;8.10;99.90
3954;DHT22;1991;48.682;9.030;2023-04-08T01:02:20;8.10;99.90
3954;DHT22;1991;48.682;9.030;2023-04-08T01:05:08;8.10;99.90
3954;DHT22;1991;48.682;9.030;2023-04-08T01:07:40;8.00;99.90
3954;DHT22;1991;48.682;9.030;2023-04-08T01:10:21;8.10;99.90
3954;DHT22;1991;48.682;9.030;2023-04-08T01:12:58;8.00;99.90
3954;DHT22;1991;48.682;9.030;2023-04-08T01:15:27;8.00;99.90
3954;DHT22;1991;48.682;9.030;2023-04-08T01:17:54;7.90;99.90
3954;DHT22;1991;48.682;9.030;2023-04-08T01:20:23;7.90;99.90
3954;DHT22;1991;48.682;9.030;2023-04-08T01:23:14;7.90;99.90
3954;DHT22;1991;48.682;9.030;2023-04-08T01:25:54;7.90;99.90
3954;DHT22;1991;48.682;9.030;2023-04-08T01:28:22;7.90;99.90
3954;DHT22;1991;48.682;9.030;2023-04-08T01:30:48;7.90;99.90
3954;DHT22;1991;48.682;9.030;2023-04-08T01:33:16;7.90;99.90
3954;DHT22;1991;48.682;9.030;2023-04-08T01:35:43;7.90;99.90
3954;DHT22;1991;48.682;9.030;2023-04-08T01:38:14;7.80;99.90
3954;DHT22;1991;48.682;9.030;2023-04-08T01:40:41;7.80;99.90
3954;DHT22;1991;48.682;9.030;2023-04-08T01:43:08;7.90;99.90
3954;DHT22;1991;48.682;9.030;2023-04-08T01:45:35;7.90;99.90
3954;DHT22;1991;48.682;9.030;2023-04-08T01:48:01;7.90;99.90
3954;DHT22;1991;48.682;9.030;2023-04-08T01:50:27;7.80;99.90
3954;DHT22;1991;48.682;9.030;2023-04-08T01:52:55;7.80;99.90
3954;DHT22;1991;48.682;9.030;2023-04-08T01:55:22;7.80;99.90
3954;DHT22;1991;48.682;9.030;2023-04-08T01:57:50;7.90;99.90
3954;DHT22;1991;48.682;9.030;2023-04-08T02:00:20;7.80;99.90
3954;DHT22;1991;48.682;9.030;2023-04-08T02:02:47;7.80;99.90
3954;DHT22;1991;48.682;9.030;2023-04-08T02:05:14;7.70;99.90
3954;DHT22;1991;48.682;9.030;2023-04-08T02:07:39;7.80;99.90
3954;DHT22;1991;48.682;9.030;2023-04-08T02:10:05;7.80;99.90
3954;DHT22;1991;48.682;9.030;2023-04-08T02:12:32;7.80;99.90
3954;DHT22;1991;48.682;9.030;2023-04-08T02:14:58;7.80;99.90
3954;DHT22;1991;48.682;9.030;2023-04-08T02:17:50;7.80;99.90
3954;DHT22;1991;48.682;9.030;2023-04-08T02:20:33;7.80;99.90
3954;DHT22;1991;48.682;9.030;2023-04-08T02:23:15;7.70;99.90
3954;DHT22;1991;48.682;9.030;2023-04-08T02:25:44;7.70;99.90
3954;DHT22;1991;48.682;9.030;2023-04-08T02:28:11;7.70;99.90
3954;DHT22;1991;48.682;9.030;2023-04-08T02:30:41;7.70;99.90
3954;DHT22;1991;48.682;9.030;2023-04-08T02:33:08;7.60;99.90
3954;DHT22;1991;48.682;9.030;2023-04-08T02:35:35;7.70;99.90
3954;DHT22;1991;48.682;9.030;2023-04-08T02:38:03;7.60;99.90
3954;DHT22;1991;48.682;9.030;2023-04-08T02:40:30;7.70;99.90
3954;DHT22;1991;48.682;9.030;2023-04-08T02:42:57;7.70;99.90
3954;DHT22;1991;48.682;9.030;2023-04-08T02:45:29;7.60;99.90
3954;DHT22;1991;48.682;9.030;2023-04-08T02:47:55;7.60;99.90
3954;DHT22;1991;48.682;9.030;2023-04-08T02:50:21;7.70;99.90
3954;DHT22;1991;48.682;9.030;2023-04-08T02:52:47;7.60;99.90
3954;DHT22;1991;48.682;9.030;2023-04-08T02:55:12;7.70;99.90
3954;DHT22;1991;48.682;9.030;2023-04-08T02:57:39;7.60;99.90
3954;DHT22;1991;48.682;9.030;2023-04-08T03:00:06;7.70;99.90
3954;DHT22;1991;48.682;9.030;2023-04-08T03:02:32;7.60;99.90
3954;DHT22;1991;48.682;9.030;2023-04-08T03:04:57;7.60;99.90
3954;DHT22;1991;48.682;9.030;2023-04-08T03:07:23;7.60;99.90
3954;DHT22;1991;48.682;9.030;2023-04-08T03:09:49;7.60;99.90
3954;DHT22;1991;48.682;9.030;2023-04-08T03:12:14;7.60;99.90
3954;DHT22;1991;48.682;9.030;2023-04-08T03:14:40;7.60;99.90
3954;DHT22;1991;48.682;9.030;2023-04-08T03:17:05;7.50;99.90
3954;DHT22;1991;48.682;9.030;2023-04-08T03:19:31;7.50;99.90
3954;DHT22;1991;48.682;9.030;2023-04-08T03:21:57;7.50;99.90
3954;DHT22;1991;48.682;9.030;2023-04-08T03:24:22;7.50;99.90
3954;DHT22;1991;48.682;9.030;2023-04-08T03:26:48;7.40;99.90
3954;DHT22;1991;48.682;9.030;2023-04-08T03:29:13;7.40;99.90
3954;DHT22;1991;48.682;9.030;2023-04-08T03:31:39;7.40;99.90
3954;DHT22;1991;48.682;9.030;2023-04-08T03:34:05;7.50;99.90
3954;DHT22;1991;48.682;9.030;2023-04-08T03:36:30;7.50;99.90
3954;DHT22;1991;48.682;9.030;2023-04-08T03:38:56;7.50;99.90
3954;DHT22;1991;48.682;9.030;2023-04-08T03:41:22;7.40;99.90
3954;DHT22;1991;48.682;9.030;2023-04-08T03:43:47;7.50;99.90
3954;DHT22;1991;48.682;9.030;2023-04-08T03:46:13;7.50;99.90
3954;DHT22;1991;48.682;9.030;2023-04-08T03:48:38;7.50;99.90
3954;DHT22;1991;48.682;9.030;2023-04-08T03:51:04;7.40;99.90
3954;DHT22;1991;48.682;9.030;2023-04-08T03:53:30;7.40;99.90
3954;DHT22;1991;48.682;9.030;2023-04-08T03:55:56;7.50;99.90
3954;DHT22;1991;48.682;9.030;2023-04-08T03:58:22;7.50;99.90
3954;DHT22;1991;48.682;9.030;2023-04-08T04:00:47;7.50;99.90
3954;DHT22;1991;48.682;9.030;2023-04-08T04:03:13;7.40;99.90
3954;DHT22;1991;48.682;9.030;2023-04-08T04:05:39;7.40;99.90
3954;DHT22;1991;48.682;9.030;2023-04-08T04:08:05;7.40;99.90
3954;DHT22;1991;48.682;9.030;2023-04-08T04:10:30;7.40;99.90
3954;DHT22;1991;48.682;9.030;2023-04-08T04:12:56;7.40;99.90
3954;DHT22;1991;48.682;9.030;2023-04-08T04:15:21;7.40;99.90
3954;DHT22;1991;48.682;9.030;2023-04-08T04:17:48;7.40;99.90
3954;DHT22;1991;48.682;9.030;2023-04-08T04:20:15;7.30;99.90
3954;DHT22;1991;48.682;9.030;2023-04-08T04:22:41;7.40;99.90
3954;DHT22;1991;48.682;9.030;2023-04-08T04:25:07;7.40;99.90
3954;DHT22;1991;48.682;9.030;2023-04-08T04:27:33;7.40;99.90
3954;DHT22;1991;48.682;9.030;2023-04-08T04:30:00;7.40;99.90
3954;DHT22;1991;48.682;9.030;2023-04-08T04:32:25;7.40;99.90
3954;DHT22;1991;48.682;9.030;2023-04-08T04:34:51;7.40;99.90
3954;DHT22;1991;48.682;9.030;2023-04-08T04:37:16;7.40;99.90
3954;DHT22;1991;48.682;9.030;2023-04-08T04:39:42;7.40;99.90
3954;DHT22;1991;48.682;9.030;2023-04-08T04:42:08;7.40;99.90
3954;DHT22;1991;48.682;9.030;2023-04-08T04:44:34;7.40;99.90
3954;DHT22;1991;48.682;9.030;2023-04-08T04:46:59;7.40;99.90
3954;DHT22;1991;48.682;9.030;2023-04-08T04:49:25;7.40;99.90
3954;DHT22;1991;48.682;9.030;2023-04-08T04:51:50;7.40;99.90
3954;DHT22;1991;48.682;9.030;2023-04-08T04:54:16;7.40;99.90
3954;DHT22;1991;48.682;9.030;2023-04-08T04:56:42;7.40;99.90
3954;DHT22;1991;48.682;9.030;2023-04-08T04:59:07;7.40;99.90
3954;DHT22;1991;48.682;9.030;2023-04-08T05:01:33;7.40;99.90
3954;DHT22;1991;48.682;9.030;2023-04-08T05:03:59;7.40;99.90
3954;DHT22;1991;48.682;9.030;2023-04-08T05:06:25;7.40;99.90
3954;DHT22;1991;48.682;9.030;2023-04-08T05:08:51;7.40;99.90
3954;DHT22;1991;48.682;9.030;2023-04-08T05:11:17;7.40;99.90
3954;DHT22;1991;48.682;9.030;2023-04-08T05:13:43;7.40;99.90
3954;DHT22;1991;48.682;9.030;2023-04-08T05:16:09;7.40;99.90
3954;DHT22;1991;48.682;9.030;2023-04-08T05:18:35;7.40;99.90
3954;DHT22;1991;48.682;9.030;2023-04-08T05:21:01;7.40;99.90
3954;DHT22;1991;48.682;9.030;2023-04-08T05:23:27;7.50;99.90
3954;DHT22;1991;48.682;9.030;2023-04-08T05:25:53;7.50;99.90
3954;DHT22;1991;48.682;9.030;2023-04-08T05:28:18;7.60;99.90
3954;DHT22;1991;48.682;9.030;2023-04-08T05:30:50;7.60;99.90
3954;DHT22;1991;48.682;9.030;2023-04-08T05:33:17;7.70;99.90
3954;DHT22;1991;48.682;9.030;2023-04-08T05:35:42;7.60;99.90
3954;DHT22;1991;48.682;9.030;2023-04-08T05:38:08;7.60;99.90
3954;DHT22;1991;48.682;9.030;2023-04-08T05:40:34;7.70;99.90
3954;DHT22;1991;48.682;9.030;2023-04-08T05:42:59;7.60;99.90
3954;DHT22;1991;48.682;9.030;2023-04-08T05:45:27;7.60;99.90
3954;DHT22;1991;48.682;9.030;2023-04-08T05:47:52;7.60;99.90
3954;DHT22;1991;48.682;9.030;2023-04-08T05:50:18;7.70;99.90
3954;DHT22;1991;48.682;9.030;2023-04-08T05:52:43;7.70;99.90
3954;DHT22;1991;48.682;9.030;2023-04-08T05:55:10;7.80;99.90
3954;DHT22;1991;48.682;9.030;2023-04-08T05:57:36;7.80;99.90
3954;DHT22;1991;48.682;9.030;2023-04-08T06:00:06;8.00;99.90
3954;DHT22;1991;48.682;9.030;2023-04-08T06:02:32;8.10;99.90
3954;DHT22;1991;48.682;9.030;2023-04-08T06:04:58;8.10;99.90
3954;DHT22;1991;48.682;9.030;2023-04-08T06:07:24;8.20;99.90
3954;DHT22;1991;48.682;9.030;2023-04-08T06:09:49;8.30;99.90
3954;DHT22;1991;48.682;9.030;2023-04-08T06:12:15;8.30;99.90
3954;DHT22;1991;48.682;9.030;2023-04-08T06:14:40;8.30;99.90
3954;DHT22;1991;48.682;9.030;2023-04-08T06:17:06;8.30;99.90
3954;DHT22;1991;48.682;9.030;2023-04-08T06:19:31;8.20;99.90
3954;DHT22;1991;48.682;9.030;2023-04-08T06:21:57;8.30;99.90
3954;DHT22;1991;48.682;9.030;2023-04-08T06:24:27;8.30;99.90
3954;DHT22;1991;48.682;9.030;2023-04-08T06:26:54;8.30;99.90
3954;DHT22;1991;48.682;9.030;2023-04-08T06:29:21;8.30;99.90
3954;DHT22;1991;48.682;9.030;2023-04-08T06:31:47;8.40;99.90
3954;DHT22;1991;48.682;9.030;2023-04-08T06:34:13;8.50;99.90
3954;DHT22;1991;48.682;9.030;2023-04-08T06:36:39;8.60;99.90
3954;DHT22;1991;48.682;9.030;2023-04-08T06:39:05;8.60;99.90
3954;DHT22;1991;48.682;9.030;2023-04-08T06:41:31;8.60;99.90
3954;DHT22;1991;48.682;9.030;2023-04-08T06:43:56;8.60;99.90
3954;DHT22;1991;48.682;9.030;2023-04-08T06:46:22;8.50;99.90
3954;DHT22;1991;48.682;9.030;2023-04-08T06:48:47;8.50;99.90
3954;DHT22;1991;48.682;9.030;2023-04-08T06:51:13;8.50;99.90
3954;DHT22;1991;48.682;9.030;2023-04-08T06:53:38;8.60;99.90
3954;DHT22;1991;48.682;9.030;2023-04-08T06:56:04;8.60;99.90
3954;DHT22;1991;48.682;9.030;2023-04-08T06:58:30;8.70;99.90
3954;DHT22;1991;48.682;9.030;2023-04-08T07:00:55;8.70;99.90
3954;DHT22;1991;48.682;9.030;2023-04-08T07:03:22;8.80;99.90
3954;DHT22;1991;48.682;9.030;2023-04-08T07:05:47;8.80;99.90
3954;DHT22;1991;48.682;9.030;2023-04-08T07:08:13;8.90;99.90
3954;DHT22;1991;48.682;9.030;2023-04-08T07:10:39;9.00;99.90
3954;DHT22;1991;48.682;9.030;2023-04-08T07:13:05;9.10;99.90
3954;DHT22;1991;48.682;9.030;2023-04-08T07:15:30;9.30;99.90
3954;DHT22;1991;48.682;9.030;2023-04-08T07:17:56;9.40;99.90
3954;DHT22;1991;48.682;9.030;2023-04-08T07:20:25;9.50;99.90
3954;DHT22;1991;48.682;9.030;2023-04-08T07:22:51;9.40;99.90
3954;DHT22;1991;48.682;9.030;2023-04-08T07:25:16;9.40;99.90
3954;DHT22;1991;48.682;9.030;2023-04-08T07:27:42;9.30;99.90
3954;DHT22;1991;48.682;9.030;2023-04-08T07:30:08;9.10;99.90
3954;DHT22;1991;48.682;9.030;2023-04-08T07:32:34;9.10;99.90
3954;DHT22;1991;48.682;9.030;2023-04-08T07:35:01;9.10;99.90
3954;DHT22;1991;48.682;9.030;2023-04-08T07:37:27;9.00;99.90
3954;DHT22;1991;48.682;9.030;2023-04-08T07:39:52;9.00;99.90
3954;DHT22;1991;48.682;9.030;2023-04-08T07:42:18;9.00;99.90
3954;DHT22;1991;48.682;9.030;2023-04-08T07:44:46;9.00;99.90
3954;DHT22;1991;48.682;9.030;2023-04-08T07:47:12;9.00;99.90
3954;DHT22;1991;48.682;9.030;2023-04-08T07:49:38;9.10;99.90
3954;DHT22;1991;48.682;9.030;2023-04-08T07:52:04;9.10;99.90
3954;DHT22;1991;48.682;9.030;2023-04-08T07:54:31;9.10;99.90
3954;DHT22;1991;48.682;9.030;2023-04-08T07:56:58;9.30;99.90
3954;DHT22;1991;48.682;9.030;2023-04-08T07:59:24;9.40;99.90
3954;DHT22;1991;48.682;9.030;2023-04-08T08:01:50;9.50;99.90
3954;DHT22;1991;48.682;9.030;2023-04-08T08:04:16;9.60;99.90
3954;DHT22;1991;48.682;9.030;2023-04-08T08:06:41;9.50;99.90
3954;DHT22;1991;48.682;9.030;2023-04-08T08:09:07;9.60;99.90
3954;DHT22;1991;48.682;9.030;2023-04-08T08:11:32;9.60;99.90
3954;DHT22;1991;48.682;9.030;2023-04-08T08:13:58;9.50;99.90
3954;DHT22;1991;48.682;9.030;2023-04-08T08:16:27;9.70;99.90
3954;DHT22;1991;48.682;9.030;2023-04-08T08:18:53;9.70;99.90
3954;DHT22;1991;48.682;9.030;2023-04-08T08:21:18;9.90;99.90
3954;DHT22;1991;48.682;9.030;2023-04-08T08:23:44;10.00;99.90
3954;DHT22;1991;48.682;9.030;2023-04-08T08:26:09;10.10;99.90
3954;DHT22;1991;48.682;9.030;2023-04-08T08:28:36;10.20;99.90
3954;DHT22;1991;48.682;9.030;2023-04-08T08:31:01;10.30;99.90
3954;DHT22;1991;48.682;9.030;2023-04-08T08:33:28;10.50;99.90
3954;DHT22;1991;48.682;9.030;2023-04-08T08:35:53;10.50;99.90
3954;DHT22;1991;48.682;9.030;2023-04-08T08:38:20;10.50;99.90
3954;DHT22;1991;48.682;9.030;2023-04-08T08:40:45;10.40;99.90
3954;DHT22;1991;48.682;9.030;2023-04-08T08:43:11;10.40;99.90
3954;DHT22;1991;48.682;9.030;2023-04-08T08:45:41;10.40;99.90
3954;DHT22;1991;48.682;9.030;2023-04-08T08:48:09;10.50;99.90
3954;DHT22;1991;48.682;9.030;2023-04-08T08:50:35;10.50;99.90
3954;DHT22;1991;48.682;9.030;2023-04-08T08:53:01;10.50;99.90
3954;DHT22;1991;48.682;9.030;2023-04-08T08:55:29;10.60;99.90
3954;DHT22;1991;48.682;9.030;2023-04-08T08:57:56;10.70;99.90
3954;DHT22;1991;48.682;9.030;2023-04-08T09:00:35;10.60;99.90
3954;DHT22;1991;48.682;9.030;2023-04-08T09:03:25;10.80;99.90
3954;DHT22;1991;48.682;9.030;2023-04-08T09:05:58;11.00;99.90
3954;DHT22;1991;48.682;9.030;2023-04-08T09:08:28;10.90;96.00
3954;DHT22;1991;48.682;9.030;2023-04-08T09:10:55;11.00;97.60
3954;DHT22;1991;48.682;9.030;2023-04-08T09:13:22;11.20;97.50
3954;DHT22;1991;48.682;9.030;2023-04-08T09:16:06;11.30;98.10
3954;DHT22;1991;48.682;9.030;2023-04-08T09:18:33;11.50;97.20
3954;DHT22;1991;48.682;9.030;2023-04-08T09:21:00;11.90;95.50
3954;DHT22;1991;48.682;9.030;2023-04-08T09:23:43;12.30;93.20
3954;DHT22;1991;48.682;9.030;2023-04-08T09:26:09;12.80;91.20
3954;DHT22;1991;48.682;9.030;2023-04-08T09:28:36;13.40;89.50
3954;DHT22;1991;48.682;9.030;2023-04-08T09:31:22;13.80;81.50
3954;DHT22;1991;48.682;9.030;2023-04-08T09:33:49;14.50;80.50
3954;DHT22;1991;48.682;9.030;2023-04-08T09:36:15;15.00;74.50
3954;DHT22;1991;48.682;9.030;2023-04-08T09:38:44;15.20;71.00
3954;DHT22;1991;48.682;9.030;2023-04-08T09:41:16;15.00;69.30
3954;DHT22;1991;48.682;9.030;2023-04-08T09:43:53;15.10;70.50
3954;DHT22;1991;48.682;9.030;2023-04-08T09:46:31;15.10;68.50
3954;DHT22;1991;48.682;9.030;2023-04-08T09:49:09;15.20;68.70
3954;DHT22;1991;48.682;9.030;2023-04-08T09:51:43;15.00;67.50
3954;DHT22;1991;48.682;9.030;2023-04-08T09:54:14;14.80;68.10
3954;DHT22;1991;48.682;9.030;2023-04-08T09:56:53;14.40;68.20
3954;DHT22;1991;48.682;9.030;2023-04-08T09:59:24;14.10;69.60
3954;DHT22;1991;48.682;9.030;2023-04-08T10:01:53;13.80;67.30
3954;DHT22;1991;48.682;9.030;2023-04-08T10:04:22;13.70;68.10
3954;DHT22;1991;48.682;9.030;2023-04-08T10:06:57;13.80;69.20
3954;DHT22;1991;48.682;9.030;2023-04-08T10:09:26;13.80;69.90
3954;DHT22;1991;48.682;9.030;2023-04-08T10:11:52;14.10;67.90
3954;DHT22;1991;48.682;9.030;2023-04-08T10:14:18;14.40;64.60
3954;DHT22;1991;48.682;9.030;2023-04-08T10:16:46;14.30;64.80
3954;DHT22;1991;48.682;9.030;2023-04-08T10:19:38;14.40;62.80
3954;DHT22;1991;48.682;9.030;2023-04-08T10:27:42;15.00;62.10
3954;DHT22;1991;48.682;9.030;2023-04-08T10:32:55;15.10;60.60
3954;DHT22;1991;48.682;9.030;2023-04-08T10:35:28;15.10;60.60
3954;DHT22;1991;48.682;9.030;2023-04-08T10:37:55;15.00;59.30
3954;DHT22;1991;48.682;9.030;2023-04-08T10:40:20;15.30;60.40
3954;DHT22;1991;48.682;9.030;2023-04-08T10:42:46;15.40;59.10
3954;DHT22;1991;48.682;9.030;2023-04-08T10:45:16;15.50;59.10
3954;DHT22;1991;48.682;9.030;2023-04-08T10:47:42;15.40;59.20
3954;DHT22;1991;48.682;9.030;2023-04-08T10:50:18;14.90;60.10
3954;DHT22;1991;48.682;9.030;2023-04-08T10:55:12;14.20;60.40
3954;DHT22;1991;48.682;9.030;2023-04-08T10:57:38;14.10;62.00
3954;DHT22;1991;48.682;9.030;2023-04-08T11:00:09;13.80;62.80
3954;DHT22;1991;48.682;9.030;2023-04-08T11:02:37;13.60;64.20
3954;DHT22;1991;48.682;9.030;2023-04-08T11:05:02;13.40;65.40
3954;DHT22;1991;48.682;9.030;2023-04-08T11:07:28;13.10;66.00
3954;DHT22;1991;48.682;9.030;2023-04-08T11:09:54;12.80;67.10
3954;DHT22;1991;48.682;9.030;2023-04-08T11:12:20;12.80;68.10
3954;DHT22;1991;48.682;9.030;2023-04-08T11:14:46;12.80;68.80
3954;DHT22;1991;48.682;9.030;2023-04-08T11:17:14;12.60;68.30
3954;DHT22;1991;48.682;9.030;2023-04-08T11:19:40;12.40;69.30
3954;DHT22;1991;48.682;9.030;2023-04-08T11:22:07;12.30;71.60
3954;DHT22;1991;48.682;9.030;2023-04-08T11:24:35;12.20;71.70
3954;DHT22;1991;48.682;9.030;2023-04-08T11:27:03;12.10;72.20
3954;DHT22;1991;48.682;9.030;2023-04-08T11:29:30;11.90;73.00
3954;DHT22;1991;48.682;9.030;2023-04-08T11:31:57;11.90;73.30
3954;DHT22;1991;48.682;9.030;2023-04-08T11:34:23;11.90;74.10
3954;DHT22;1991;48.682;9.030;2023-04-08T11:36:50;11.90;75.20
3954;DHT22;1991;48.682;9.030;2023-04-08T11:39:16;11.90;75.50
3954;DHT22;1991;48.682;9.030;2023-04-08T11:41:41;11.80;76.20
3954;DHT22;1991;48.682;9.030;2023-04-08T11:44:07;11.80;76.80
3954;DHT22;1991;48.682;9.030;2023-04-08T11:46:34;11.70;76.60
3954;DHT22;1991;48.682;9.030;2023-04-08T11:49:02;11.70;77.90
3954;DHT22;1991;48.682;9.030;2023-04-08T11:51:27;11.70;77.20
3954;DHT22;1991;48.682;9.030;2023-04-08T11:53:53;11.70;78.30
3954;DHT22;1991;48.682;9.030;2023-04-08T11:56:20;11.60;77.80
3954;DHT22;1991;48.682;9.030;2023-04-08T11:58:47;11.60;77.90
3954;DHT22;1991;48.682;9.030;2023-04-08T12:01:13;11.70;78.00
3954;DHT22;1991;48.682;9.030;2023-04-08T12:03:52;11.80;76.60
3954;DHT22;1991;48.682;9.030;2023-04-08T12:06:17;11.70;76.40
3954;DHT22;1991;48.682;9.030;2023-04-08T12:08:43;11.70;76.50
3954;DHT22;1991;48.682;9.030;2023-04-08T12:11:09;11.70;74.80
3954;DHT22;1991;48.682;9.030;2023-04-08T12:13:35;11.50;75.50
3954;DHT22;1991;48.682;9.030;2023-04-08T12:16:01;11.50;74.80
3954;DHT22;1991;48.682;9.030;2023-04-08T12:18:26;11.50;72.80
3954;DHT22;1991;48.682;9.030;2023-04-08T12:20:52;11.50;73.30
3954;DHT22;1991;48.682;9.030;2023-04-08T12:23:17;11.40;70.30
3954;DHT22;1991;48.682;9.030;2023-04-08T12:25:43;11.30;71.70
3954;DHT22;1991;48.682;9.030;2023-04-08T12:28:09;11.40;73.30
3954;DHT22;1991;48.682;9.030;2023-04-08T12:30:35;11.30;73.40
3954;DHT22;1991;48.682;9.030;2023-04-08T12:33:01;11.30;74.60
3954;DHT22;1991;48.682;9.030;2023-04-08T12:35:27;11.30;71.50
3954;DHT22;1991;48.682;9.030;2023-04-08T12:37:52;11.30;70.90
3954;DHT22;1991;48.682;9.030;2023-04-08T12:40:18;11.30;71.20
3954;DHT22;1991;48.682;9.030;2023-04-08T12:42:44;11.40;71.40
3954;DHT22;1991;48.682;9.030;2023-04-08T12:45:09;11.50;71.70
3954;DHT22;1991;48.682;9.030;2023-04-08T12:47:35;11.40;71.10
3954;DHT22;1991;48.682;9.030;2023-04-08T12:50:01;11.40;71.00
3954;DHT22;1991;48.682;9.030;2023-04-08T12:52:26;11.30;70.80
3954;DHT22;1991;48.682;9.030;2023-04-08T12:54:52;11.10;70.50
3954;DHT22;1991;48.682;9.030;2023-04-08T12:57:17;10.90;73.10
3954;DHT22;1991;48.682;9.030;2023-04-08T12:59:43;10.90;73.30
3954;DHT22;1991;48.682;9.030;2023-04-08T13:02:08;10.80;74.30
3954;DHT22;1991;48.682;9.030;2023-04-08T13:04:34;10.80;75.40
3954;DHT22;1991;48.682;9.030;2023-04-08T13:07:00;10.80;76.90
3954;DHT22;1991;48.682;9.030;2023-04-08T13:09:25;10.60;76.70
3954;DHT22;1991;48.682;9.030;2023-04-08T13:11:51;10.60;77.70
3954;DHT22;1991;48.682;9.030;2023-04-08T13:14:17;10.60;76.60
3954;DHT22;1991;48.682;9.030;2023-04-08T13:16:43;10.50;78.40
3954;DHT22;1991;48.682;9.030;2023-04-08T13:19:09;10.50;78.00
3954;DHT22;1991;48.682;9.030;2023-04-08T13:21:34;10.60;79.50
3954;DHT22;1991;48.682;9.030;2023-04-08T13:24:00;10.70;79.90
3954;DHT22;1991;48.682;9.030;2023-04-08T13:26:26;10.80;79.70
3954;DHT22;1991;48.682;9.030;2023-04-08T13:28:53;10.90;77.90
3954;DHT22;1991;48.682;9.030;2023-04-08T13:31:18;10.90;78.60
3954;DHT22;1991;48.682;9.030;2023-04-08T13:33:44;10.90;77.70
3954;DHT22;1991;48.682;9.030;2023-04-08T13:36:09;10.90;77.80
3954;DHT22;1991;48.682;9.030;2023-04-08T13:38:35;10.80;77.90
3954;DHT22;1991;48.682;9.030;2023-04-08T13:41:01;10.80;78.50
3954;DHT22;1991;48.682;9.030;2023-04-08T13:43:27;10.90;77.50
3954;DHT22;1991;48.682;9.030;2023-04-08T13:45:52;11.00;77.50
3954;DHT22;1991;48.682;9.030;2023-04-08T13:48:18;11.10;77.70
3954;DHT22;1991;48.682;9.030;2023-04-08T13:50:43;11.20;76.90
3954;DHT22;1991;48.682;9.030;2023-04-08T13:53:09;11.20;75.50
3954;DHT22;1991;48.682;9.030;2023-04-08T13:55:35;11.20;74.70
3954;DHT22;1991;48.682;9.030;2023-04-08T13:58:00;11.20;76.90
3954;DHT22;1991;48.682;9.030;2023-04-08T14:00:26;11.10;75.60
3954;DHT22;1991;48.682;9.030;2023-04-08T14:02:52;11.10;76.60
3954;DHT22;1991;48.682;9.030;2023-04-08T14:05:17;11.10;75.80
3954;DHT22;1991;48.682;9.030;2023-04-08T14:07:43;11.30;76.60
3954;DHT22;1991;48.682;9.030;2023-04-08T14:10:09;11.30;74.80
3954;DHT22;1991;48.682;9.030;2023-04-08T14:12:35;11.10;75.80
3954;DHT22;1991;48.682;9.030;2023-04-08T14:15:01;11.10;75.80
3954;DHT22;1991;48.682;9.030;2023-04-08T14:17:27;11.10;76.00
3954;DHT22;1991;48.682;9.030;2023-04-08T14:19:52;11.10;76.70
3954;DHT22;1991;48.682;9.030;2023-04-08T14:22:18;11.10;76.00
3954;DHT22;1991;48.682;9.030;2023-04-08T14:24:44;11.20;75.50
3954;DHT22;1991;48.682;9.030;2023-04-08T14:27:09;11.20;74.70
3954;DHT22;1991;48.682;9.030;2023-04-08T14:29:35;11.20;74.10
3954;DHT22;1991;48.682;9.030;2023-04-08T14:32:00;11.10;75.20
3954;DHT22;1991;48.682;9.030;2023-04-08T14:34:26;11.10;76.00
3954;DHT22;1991;48.682;9.030;2023-04-08T14:36:52;11.30;76.50
3954;DHT22;1991;48.682;9.030;2023-04-08T14:39:17;11.50;75.00
3954;DHT22;1991;48.682;9.030;2023-04-08T14:41:43;11.50;75.50
3954;DHT22;1991;48.682;9.030;2023-04-08T14:44:08;11.50;74.90
3954;DHT22;1991;48.682;9.030;2023-04-08T14:46:34;11.50;74.90
3954;DHT22;1991;48.682;9.030;2023-04-08T14:48:59;11.40;74.20
3954;DHT22;1991;48.682;9.030;2023-04-08T14:51:25;11.30;74.70
3954;DHT22;1991;48.682;9.030;2023-04-08T14:53:51;11.20;75.80
3954;DHT22;1991;48.682;9.030;2023-04-08T14:56:16;11.20;75.50
3954;DHT22;1991;48.682;9.030;2023-04-08T14:58:42;11.10;75.80
3954;DHT22;1991;48.682;9.030;2023-04-08T15:01:07;11.10;76.20
3954;DHT22;1991;48.682;9.030;2023-04-08T15:03:33;11.20;76.80
3954;DHT22;1991;48.682;9.030;2023-04-08T15:05:58;11.40;77.10
3954;DHT22;1991;48.682;9.030;2023-04-08T15:08:25;11.40;75.70
3954;DHT22;1991;48.682;9.030;2023-04-08T15:10:51;11.50;76.80
3954;DHT22;1991;48.682;9.030;2023-04-08T15:13:16;11.60;75.20
3954;DHT22;1991;48.682;9.030;2023-04-08T15:15:42;11.70;75.70
3954;DHT22;1991;48.682;9.030;2023-04-08T15:18:07;11.70;74.20
3954;DHT22;1991;48.682;9.030;2023-04-08T15:20:33;11.60;75.70
3954;DHT22;1991;48.682;9.030;2023-04-08T15:22:59;11.60;74.30
3954;DHT22;1991;48.682;9.030;2023-04-08T15:25:24;11.60;74.70
3954;DHT22;1991;48.682;9.030;2023-04-08T15:27:50;11.50;75.60
3954;DHT22;1991;48.682;9.030;2023-04-08T15:30:16;11.40;75.60
3954;DHT22;1991;48.682;9.030;2023-04-08T15:32:48;11.40;75.70
3954;DHT22;1991;48.682;9.030;2023-04-08T15:35:14;11.30;75.80
3954;DHT22;1991;48.682;9.030;2023-04-08T15:37:40;11.20;76.60
3954;DHT22;1991;48.682;9.030;2023-04-08T15:40:06;11.20;76.90
3954;DHT22;1991;48.682;9.030;2023-04-08T15:42:32;11.10;76.00
3954;DHT22;1991;48.682;9.030;2023-04-08T15:44:58;11.00;78.00
3954;DHT22;1991;48.682;9.030;2023-04-08T15:47:23;11.00;78.90
3954;DHT22;1991;48.682;9.030;2023-04-08T15:49:51;10.90;78.00
3954;DHT22;1991;48.682;9.030;2023-04-08T15:52:17;10.80;78.30
3954;DHT22;1991;48.682;9.030;2023-04-08T15:54:42;10.80;78.60
3954;DHT22;1991;48.682;9.030;2023-04-08T15:57:08;10.80;78.70
3954;DHT22;1991;48.682;9.030;2023-04-08T15:59:34;10.80;77.90
3954;DHT22;1991;48.682;9.030;2023-04-08T16:02:00;10.60;78.50
3954;DHT22;1991;48.682;9.030;2023-04-08T16:04:25;10.60;78.40
3954;DHT22;1991;48.682;9.030;2023-04-08T16:06:52;10.60;78.00
3954;DHT22;1991;48.682;9.030;2023-04-08T16:09:17;10.70;77.20
3954;DHT22;1991;48.682;9.030;2023-04-08T16:11:47;10.60;77.10
3954;DHT22;1991;48.682;9.030;2023-04-08T16:14:13;10.60;76.00
3954;DHT22;1991;48.682;9.030;2023-04-08T16:16:38;10.60;75.20
3954;DHT22;1991;48.682;9.030;2023-04-08T16:19:04;10.60;75.90